sensor_id;sensor_type;location;lat;lon;timestamp;P1;durP1;ratioP1;P2;durP2;ratioP2
19889;SDS011;10107;51.198;6.824;2024-03-02T00:02:27;2.45;;;2.03;;
19889;SDS011;10107;51.198;6.824;2024-03-02T00:06:29;2.75;;;2.20;;
19889;SDS011;10107;51.198;6.824;2024-03-02T00:10:33;3.55;;;2.13;;
19889;SDS011;10107;51.198;6.824;2024-03-02T00:14:39;5.32;;;2.50;;
19889;SDS011;10107;51.198;6.824;2024-03-02T00:18:41;3.20;;;2.35;;
19889;SDS011;10107;51.198;6.824;2024-03-02T00:22:43;3.20;;;2.17;;
19889;SDS011;10107;51.198;6.824;2024-03-02T00:26:47;2.60;;;2.00;;
19889;SDS011;10107;51.198;6.824;2024-03-02T00:30:56;3.15;;;2.15;;
19889;SDS011;10107;51.198;6.824;2024-03-02T00:34:59;3.92;;;2.00;;
19889;SDS011;10107;51.198;6.824;2024-03-02T00:39:01;3.50;;;1.95;;
19889;SDS011;10107;51.198;6.824;2024-03-02T00:43:05;3.00;;;2.50;;
19889;SDS011;10107;51.198;6.824;2024-03-02T00:47:06;2.58;;;2.05;;
19889;SDS011;10107;51.198;6.824;2024-03-02T00:51:08;3.15;;;2.05;;
19889;SDS011;10107;51.198;6.824;2024-03-02T00:55:10;4.10;;;2.35;;
19889;SDS011;10107;51.198;6.824;2024-03-02T00:59:16;4.30;;;2.38;;
19889;SDS011;10107;51.198;6.824;2024-03-02T01:03:17;2.67;;;2.00;;
19889;SDS011;10107;51.198;6.824;2024-03-02T01:07:19;4.25;;;2.22;;
19889;SDS011;10107;51.198;6.824;2024-03-02T01:11:21;4.20;;;2.05;;
19889;SDS011;10107;51.198;6.824;2024-03-02T01:15:24;2.55;;;1.85;;
19889;SDS011;10107;51.198;6.824;2024-03-02T01:19:26;3.20;;;2.00;;
19889;SDS011;10107;51.198;6.824;2024-03-02T01:23:28;2.83;;;1.90;;
19889;SDS011;10107;51.198;6.824;2024-03-02T01:27:30;3.75;;;2.03;;
19889;SDS011;10107;51.198;6.824;2024-03-02T01:31:33;3.53;;;2.00;;
19889;SDS011;10107;51.198;6.824;2024-03-02T01:35:35;3.80;;;2.28;;
19889;SDS011;10107;51.198;6.824;2024-03-02T01:39:37;4.20;;;2.03;;
19889;SDS011;10107;51.198;6.824;2024-03-02T01:43:39;5.18;;;2.10;;
19889;SDS011;10107;51.198;6.824;2024-03-02T01:47:42;3.50;;;1.92;;
19889;SDS011;10107;51.198;6.824;2024-03-02T01:51:44;2.85;;;1.38;;
19889;SDS011;10107;51.198;6.824;2024-03-02T01:55:46;4.78;;;2.10;;
19889;SDS011;10107;51.198;6.824;2024-03-02T01:59:48;3.45;;;1.75;;
19889;SDS011;10107;51.198;6.824;2024-03-02T02:03:52;3.43;;;1.90;;
19889;SDS011;10107;51.198;6.824;2024-03-02T02:07:54;3.08;;;1.63;;
19889;SDS011;10107;51.198;6.824;2024-03-02T02:11:58;2.58;;;1.77;;
19889;SDS011;10107;51.198;6.824;2024-03-02T02:16:04;2.15;;;1.60;;
19889;SDS011;10107;51.198;6.824;2024-03-02T02:20:08;2.35;;;1.65;;
19889;SDS011;10107;51.198;6.824;2024-03-02T02:24:12;2.20;;;1.60;;
19889;SDS011;10107;51.198;6.824;2024-03-02T02:28:13;2.92;;;1.90;;
19889;SDS011;10107;51.198;6.824;2024-03-02T02:32:15;2.72;;;1.67;;
19889;SDS011;10107;51.198;6.824;2024-03-02T02:36:17;2.83;;;1.80;;
19889;SDS011;10107;51.198;6.824;2024-03-02T02:40:20;3.53;;;1.80;;
19889;SDS011;10107;51.198;6.824;2024-03-02T02:44:22;4.07;;;1.60;;
19889;SDS011;10107;51.198;6.824;2024-03-02T02:48:24;2.30;;;1.80;;
19889;SDS011;10107;51.198;6.824;2024-03-02T02:52:30;3.28;;;1.80;;
19889;SDS011;10107;51.198;6.824;2024-03-02T02:56:34;1.70;;;1.42;;
19889;SDS011;10107;51.198;6.824;2024-03-02T03:00:36;2.35;;;1.83;;
19889;SDS011;10107;51.198;6.824;2024-03-02T03:04:39;2.33;;;1.60;;
19889;SDS011;10107;51.198;6.824;2024-03-02T03:08:41;2.50;;;1.60;;
19889;SDS011;10107;51.198;6.824;2024-03-02T03:12:44;2.47;;;1.80;;
19889;SDS011;10107;51.198;6.824;2024-03-02T03:16:46;2.42;;;1.60;;
19889;SDS011;10107;51.198;6.824;2024-03-02T03:20:48;2.00;;;1.50;;
19889;SDS011;10107;51.198;6.824;2024-03-02T03:24:50;2.33;;;1.58;;
19889;SDS011;10107;51.198;6.824;2024-03-02T03:28:53;5.15;;;1.70;;
19889;SDS011;10107;51.198;6.824;2024-03-02T03:32:55;3.47;;;1.80;;
19889;SDS011;10107;51.198;6.824;2024-03-02T03:36:56;2.67;;;1.77;;
19889;SDS011;10107;51.198;6.824;2024-03-02T03:40:58;2.67;;;1.77;;
19889;SDS011;10107;51.198;6.824;2024-03-02T03:45:01;1.88;;;1.48;;
19889;SDS011;10107;51.198;6.824;2024-03-02T03:49:03;1.40;;;1.25;;
19889;SDS011;10107;51.198;6.824;2024-03-02T03:53:05;2.13;;;1.50;;
19889;SDS011;10107;51.198;6.824;2024-03-02T03:57:07;2.67;;;1.50;;
19889;SDS011;10107;51.198;6.824;2024-03-02T04:01:10;2.80;;;1.63;;
19889;SDS011;10107;51.198;6.824;2024-03-02T04:05:12;2.75;;;2.00;;
19889;SDS011;10107;51.198;6.824;2024-03-02T04:09:14;2.20;;;1.85;;
19889;SDS011;10107;51.198;6.824;2024-03-02T04:13:15;2.60;;;1.80;;
19889;SDS011;10107;51.198;6.824;2024-03-02T04:17:18;2.47;;;1.73;;
19889;SDS011;10107;51.198;6.824;2024-03-02T04:21:20;2.97;;;1.80;;
19889;SDS011;10107;51.198;6.824;2024-03-02T04:25:22;2.13;;;1.70;;
19889;SDS011;10107;51.198;6.824;2024-03-02T04:29:24;3.15;;;1.63;;
19889;SDS011;10107;51.198;6.824;2024-03-02T04:33:27;2.67;;;1.77;;
19889;SDS011;10107;51.198;6.824;2024-03-02T04:37:29;2.50;;;1.45;;
19889;SDS011;10107;51.198;6.824;2024-03-02T04:41:31;2.95;;;1.90;;
19889;SDS011;10107;51.198;6.824;2024-03-02T04:45:33;3.20;;;2.10;;
19889;SDS011;10107;51.198;6.824;2024-03-02T04:49:36;3.67;;;2.10;;
19889;SDS011;10107;51.198;6.824;2024-03-02T04:53:37;4.03;;;1.85;;
19889;SDS011;10107;51.198;6.824;2024-03-02T04:57:39;2.40;;;1.80;;
19889;SDS011;10107;51.198;6.824;2024-03-02T05:01:41;2.05;;;1.80;;
19889;SDS011;10107;51.198;6.824;2024-03-02T05:05:44;2.42;;;1.98;;
19889;SDS011;10107;51.198;6.824;2024-03-02T05:09:46;3.05;;;2.10;;
19889;SDS011;10107;51.198;6.824;2024-03-02T05:13:48;2.67;;;2.10;;
19889;SDS011;10107;51.198;6.824;2024-03-02T05:17:50;2.55;;;1.98;;
19889;SDS011;10107;51.198;6.824;2024-03-02T05:21:53;2.63;;;2.00;;
19889;SDS011;10107;51.198;6.824;2024-03-02T05:25:55;3.20;;;1.80;;
19889;SDS011;10107;51.198;6.824;2024-03-02T05:29:57;3.00;;;2.20;;
19889;SDS011;10107;51.198;6.824;2024-03-02T05:33:59;2.67;;;1.80;;
19889;SDS011;10107;51.198;6.824;2024-03-02T05:38:02;2.78;;;2.00;;
19889;SDS011;10107;51.198;6.824;2024-03-02T05:42:04;2.70;;;2.08;;
19889;SDS011;10107;51.198;6.824;2024-03-02T05:46:06;4.47;;;2.20;;
19889;SDS011;10107;51.198;6.824;2024-03-02T05:50:08;2.85;;;2.10;;
19889;SDS011;10107;51.198;6.824;2024-03-02T05:54:11;4.30;;;2.35;;
19889;SDS011;10107;51.198;6.824;2024-03-02T05:58:13;5.22;;;2.20;;
19889;SDS011;10107;51.198;6.824;2024-03-02T06:06:29;3.85;;;2.53;;
19889;SDS011;10107;51.198;6.824;2024-03-02T06:10:33;3.78;;;2.53;;
19889;SDS011;10107;51.198;6.824;2024-03-02T06:14:35;2.58;;;1.75;;
19889;SDS011;10107;51.198;6.824;2024-03-02T06:18:37;2.75;;;2.22;;
19889;SDS011;10107;51.198;6.824;2024-03-02T06:22:39;4.13;;;2.40;;
19889;SDS011;10107;51.198;6.824;2024-03-02T06:26:42;4.57;;;2.60;;
19889;SDS011;10107;51.198;6.824;2024-03-02T06:30:44;3.95;;;1.90;;
19889;SDS011;10107;51.198;6.824;2024-03-02T06:34:46;3.25;;;2.30;;
19889;SDS011;10107;51.198;6.824;2024-03-02T06:38:47;5.78;;;2.35;;
19889;SDS011;10107;51.198;6.824;2024-03-02T06:42:50;4.22;;;2.63;;
19889;SDS011;10107;51.198;6.824;2024-03-02T06:46:52;6.00;;;2.53;;
19889;SDS011;10107;51.198;6.824;2024-03-02T06:50:54;2.55;;;2.10;;
19889;SDS011;10107;51.198;6.824;2024-03-02T06:54:56;4.13;;;2.58;;
19889;SDS011;10107;51.198;6.824;2024-03-02T06:58:59;4.35;;;2.38;;
19889;SDS011;10107;51.198;6.824;2024-03-02T07:03:00;4.40;;;2.65;;
19889;SDS011;10107;51.198;6.824;2024-03-02T07:07:02;2.97;;;2.00;;
19889;SDS011;10107;51.198;6.824;2024-03-02T07:11:04;5.30;;;2.83;;
19889;SDS011;10107;51.198;6.824;2024-03-02T07:15:08;3.70;;;2.38;;
19889;SDS011;10107;51.198;6.824;2024-03-02T07:19:29;4.70;;;2.42;;
19889;SDS011;10107;51.198;6.824;2024-03-02T07:23:30;5.13;;;2.70;;
19889;SDS011;10107;51.198;6.824;2024-03-02T07:27:32;3.95;;;2.60;;
19889;SDS011;10107;51.198;6.824;2024-03-02T07:31:36;4.22;;;2.38;;
19889;SDS011;10107;51.198;6.824;2024-03-02T07:35:38;3.00;;;2.50;;
19889;SDS011;10107;51.198;6.824;2024-03-02T07:39:40;4.53;;;2.70;;
19889;SDS011;10107;51.198;6.824;2024-03-02T07:43:41;3.10;;;2.15;;
19889;SDS011;10107;51.198;6.824;2024-03-02T07:47:46;3.83;;;2.72;;
19889;SDS011;10107;51.198;6.824;2024-03-02T07:51:48;3.08;;;2.40;;
19889;SDS011;10107;51.198;6.824;2024-03-02T07:55:49;4.90;;;2.85;;
19889;SDS011;10107;51.198;6.824;2024-03-02T07:59:51;3.17;;;2.65;;
19889;SDS011;10107;51.198;6.824;2024-03-02T08:03:54;5.10;;;2.63;;
19889;SDS011;10107;51.198;6.824;2024-03-02T08:07:58;3.38;;;2.55;;
19889;SDS011;10107;51.198;6.824;2024-03-02T08:12:00;3.78;;;2.38;;
19889;SDS011;10107;51.198;6.824;2024-03-02T08:16:02;2.60;;;2.20;;
19889;SDS011;10107;51.198;6.824;2024-03-02T08:20:09;2.67;;;2.30;;
19889;SDS011;10107;51.198;6.824;2024-03-02T08:24:11;2.40;;;1.90;;
19889;SDS011;10107;51.198;6.824;2024-03-02T08:28:13;2.75;;;2.10;;
19889;SDS011;10107;51.198;6.824;2024-03-02T08:32:14;2.92;;;2.20;;
19889;SDS011;10107;51.198;6.824;2024-03-02T08:36:18;2.38;;;2.03;;
19889;SDS011;10107;51.198;6.824;2024-03-02T08:40:20;2.42;;;2.15;;
19889;SDS011;10107;51.198;6.824;2024-03-02T08:44:22;2.63;;;2.00;;
19889;SDS011;10107;51.198;6.824;2024-03-02T08:48:24;4.95;;;2.10;;
19889;SDS011;10107;51.198;6.824;2024-03-02T08:52:27;2.72;;;2.22;;
19889;SDS011;10107;51.198;6.824;2024-03-02T08:56:29;3.83;;;2.20;;
19889;SDS011;10107;51.198;6.824;2024-03-02T09:00:31;3.72;;;2.28;;
19889;SDS011;10107;51.198;6.824;2024-03-02T09:04:33;3.53;;;2.33;;
19889;SDS011;10107;51.198;6.824;2024-03-02T09:08:36;3.08;;;2.25;;
19889;SDS011;10107;51.198;6.824;2024-03-02T09:12:38;5.50;;;2.35;;
19889;SDS011;10107;51.198;6.824;2024-03-02T09:16:40;3.05;;;2.00;;
19889;SDS011;10107;51.198;6.824;2024-03-02T09:20:42;2.95;;;2.15;;
19889;SDS011;10107;51.198;6.824;2024-03-02T09:24:45;3.80;;;2.22;;
19889;SDS011;10107;51.198;6.824;2024-03-02T09:28:46;2.85;;;2.10;;
19889;SDS011;10107;51.198;6.824;2024-03-02T09:32:48;2.33;;;1.63;;
19889;SDS011;10107;51.198;6.824;2024-03-02T09:36:50;1.90;;;1.17;;
19889;SDS011;10107;51.198;6.824;2024-03-02T09:40:54;2.35;;;1.10;;
19889;SDS011;10107;51.198;6.824;2024-03-02T09:44:56;1.70;;;1.00;;
19889;SDS011;10107;51.198;6.824;2024-03-02T09:48:58;1.98;;;1.15;;
19889;SDS011;10107;51.198;6.824;2024-03-02T09:53:02;1.98;;;0.95;;
19889;SDS011;10107;51.198;6.824;2024-03-02T09:57:05;1.20;;;0.90;;
19889;SDS011;10107;51.198;6.824;2024-03-02T10:01:07;2.03;;;1.20;;
19889;SDS011;10107;51.198;6.824;2024-03-02T10:05:10;3.20;;;1.10;;
19889;SDS011;10107;51.198;6.824;2024-03-02T10:09:13;1.65;;;1.00;;
19889;SDS011;10107;51.198;6.824;2024-03-02T10:13:30;2.30;;;1.20;;
19889;SDS011;10107;51.198;6.824;2024-03-02T10:17:32;1.23;;;0.80;;
19889;SDS011;10107;51.198;6.824;2024-03-02T10:21:33;2.13;;;1.33;;
19889;SDS011;10107;51.198;6.824;2024-03-02T10:25:35;2.03;;;1.00;;
19889;SDS011;10107;51.198;6.824;2024-03-02T10:29:38;1.23;;;1.13;;
19889;SDS011;10107;51.198;6.824;2024-03-02T10:33:41;0.88;;;0.88;;
19889;SDS011;10107;51.198;6.824;2024-03-02T10:37:43;1.90;;;1.20;;
19889;SDS011;10107;51.198;6.824;2024-03-02T10:41:44;2.38;;;1.33;;
19889;SDS011;10107;51.198;6.824;2024-03-02T10:45:52;1.75;;;1.08;;
19889;SDS011;10107;51.198;6.824;2024-03-02T10:49:55;1.95;;;1.13;;
19889;SDS011;10107;51.198;6.824;2024-03-02T10:54:01;1.60;;;1.20;;
19889;SDS011;10107;51.198;6.824;2024-03-02T10:58:04;2.47;;;1.45;;
19889;SDS011;10107;51.198;6.824;2024-03-02T11:02:08;2.20;;;1.47;;
19889;SDS011;10107;51.198;6.824;2024-03-02T11:06:14;4.75;;;1.63;;
19889;SDS011;10107;51.198;6.824;2024-03-02T11:10:16;2.40;;;1.40;;
19889;SDS011;10107;51.198;6.824;2024-03-02T11:14:18;1.35;;;1.17;;
19889;SDS011;10107;51.198;6.824;2024-03-02T11:18:26;3.47;;;1.40;;
19889;SDS011;10107;51.198;6.824;2024-03-02T11:26:30;2.63;;;1.40;;
19889;SDS011;10107;51.198;6.824;2024-03-02T11:30:49;3.60;;;1.55;;
19889;SDS011;10107;51.198;6.824;2024-03-02T11:34:55;3.42;;;1.60;;
19889;SDS011;10107;51.198;6.824;2024-03-02T11:38:57;2.95;;;1.55;;
19889;SDS011;10107;51.198;6.824;2024-03-02T11:42:59;2.25;;;1.50;;
19889;SDS011;10107;51.198;6.824;2024-03-02T11:47:01;2.40;;;1.40;;
19889;SDS011;10107;51.198;6.824;2024-03-02T11:51:07;2.17;;;1.50;;
19889;SDS011;10107;51.198;6.824;2024-03-02T11:55:09;2.53;;;1.53;;
19889;SDS011;10107;51.198;6.824;2024-03-02T11:59:12;2.10;;;1.50;;
19889;SDS011;10107;51.198;6.824;2024-03-02T12:03:14;3.70;;;1.77;;
19889;SDS011;10107;51.198;6.824;2024-03-02T12:07:20;3.30;;;1.77;;
19889;SDS011;10107;51.198;6.824;2024-03-02T12:11:24;1.80;;;1.40;;
19889;SDS011;10107;51.198;6.824;2024-03-02T12:15:25;2.03;;;1.40;;
19889;SDS011;10107;51.198;6.824;2024-03-02T12:19:28;2.42;;;1.50;;
19889;SDS011;10107;51.198;6.824;2024-03-02T12:23:32;3.55;;;1.50;;
19889;SDS011;10107;51.198;6.824;2024-03-02T12:27:34;2.45;;;1.48;;
19889;SDS011;10107;51.198;6.824;2024-03-02T12:31:36;1.98;;;1.40;;
19889;SDS011;10107;51.198;6.824;2024-03-02T12:35:38;2.95;;;1.30;;
19889;SDS011;10107;51.198;6.824;2024-03-02T12:39:43;2.03;;;1.20;;
19889;SDS011;10107;51.198;6.824;2024-03-02T12:43:46;1.38;;;1.20;;
19889;SDS011;10107;51.198;6.824;2024-03-02T12:47:47;2.42;;;1.20;;
19889;SDS011;10107;51.198;6.824;2024-03-02T12:51:49;2.88;;;1.52;;
19889;SDS011;10107;51.198;6.824;2024-03-02T12:55:55;1.35;;;1.20;;
19889;SDS011;10107;51.198;6.824;2024-03-02T12:59:58;1.58;;;1.30;;
19889;SDS011;10107;51.198;6.824;2024-03-02T13:03:59;2.17;;;1.15;;
19889;SDS011;10107;51.198;6.824;2024-03-02T13:08:01;3.05;;;1.48;;
19889;SDS011;10107;51.198;6.824;2024-03-02T13:12:06;3.03;;;1.40;;
19889;SDS011;10107;51.198;6.824;2024-03-02T13:16:08;2.17;;;1.30;;
19889;SDS011;10107;51.198;6.824;2024-03-02T13:20:11;2.92;;;1.50;;
19889;SDS011;10107;51.198;6.824;2024-03-02T13:24:14;1.45;;;1.20;;
19889;SDS011;10107;51.198;6.824;2024-03-02T13:28:17;2.55;;;1.33;;
19889;SDS011;10107;51.198;6.824;2024-03-02T13:32:19;1.75;;;1.15;;
19889;SDS011;10107;51.198;6.824;2024-03-02T13:36:23;2.50;;;1.40;;
19889;SDS011;10107;51.198;6.824;2024-03-02T13:40:25;1.60;;;1.20;;
19889;SDS011;10107;51.198;6.824;2024-03-02T13:44:29;1.52;;;1.15;;
19889;SDS011;10107;51.198;6.824;2024-03-02T13:48:31;1.15;;;0.88;;
19889;SDS011;10107;51.198;6.824;2024-03-02T13:52:32;1.90;;;1.10;;
19889;SDS011;10107;51.198;6.824;2024-03-02T13:56:34;1.25;;;1.10;;
19889;SDS011;10107;51.198;6.824;2024-03-02T14:00:40;2.10;;;1.20;;
19889;SDS011;10107;51.198;6.824;2024-03-02T14:04:42;3.07;;;1.20;;
19889;SDS011;10107;51.198;6.824;2024-03-02T14:08:44;2.60;;;1.10;;
19889;SDS011;10107;51.198;6.824;2024-03-02T14:12:46;2.47;;;1.35;;
19889;SDS011;10107;51.198;6.824;2024-03-02T14:16:49;1.15;;;0.95;;
19889;SDS011;10107;51.198;6.824;2024-03-02T14:20:51;2.05;;;0.90;;
19889;SDS011;10107;51.198;6.824;2024-03-02T14:24:52;1.27;;;1.00;;
19889;SDS011;10107;51.198;6.824;2024-03-02T14:28:54;1.83;;;1.35;;
19889;SDS011;10107;51.198;6.824;2024-03-02T14:32:57;1.45;;;0.93;;
19889;SDS011;10107;51.198;6.824;2024-03-02T14:36:59;1.33;;;0.88;;
19889;SDS011;10107;51.198;6.824;2024-03-02T14:41:01;3.63;;;1.20;;
19889;SDS011;10107;51.198;6.824;2024-03-02T14:45:04;2.30;;;1.17;;
19889;SDS011;10107;51.198;6.824;2024-03-02T14:49:07;1.50;;;1.00;;
19889;SDS011;10107;51.198;6.824;2024-03-02T14:53:09;2.13;;;1.00;;
19889;SDS011;10107;51.198;6.824;2024-03-02T14:57:11;2.95;;;1.30;;
19889;SDS011;10107;51.198;6.824;2024-03-02T15:01:13;4.03;;;1.20;;
19889;SDS011;10107;51.198;6.824;2024-03-02T15:05:17;2.05;;;1.33;;
19889;SDS011;10107;51.198;6.824;2024-03-02T15:09:19;1.48;;;1.08;;
19889;SDS011;10107;51.198;6.824;2024-03-02T15:13:20;1.25;;;0.95;;
19889;SDS011;10107;51.198;6.824;2024-03-02T15:17:22;1.13;;;0.95;;
19889;SDS011;10107;51.198;6.824;2024-03-02T15:21:25;2.20;;;1.35;;
19889;SDS011;10107;51.198;6.824;2024-03-02T15:25:27;1.07;;;0.97;;
19889;SDS011;10107;51.198;6.824;2024-03-02T15:29:28;1.00;;;0.90;;
19889;SDS011;10107;51.198;6.824;2024-03-02T15:33:31;1.30;;;1.20;;
19889;SDS011;10107;51.198;6.824;2024-03-02T15:37:35;1.27;;;1.00;;
19889;SDS011;10107;51.198;6.824;2024-03-02T15:41:36;1.57;;;1.20;;
19889;SDS011;10107;51.198;6.824;2024-03-02T15:45:40;1.67;;;1.23;;
19889;SDS011;10107;51.198;6.824;2024-03-02T15:49:42;1.92;;;1.00;;
19889;SDS011;10107;51.198;6.824;2024-03-02T15:53:46;1.00;;;0.90;;
19889;SDS011;10107;51.198;6.824;2024-03-02T15:57:47;2.57;;;1.10;;
19889;SDS011;10107;51.198;6.824;2024-03-02T16:01:49;1.85;;;1.00;;
19889;SDS011;10107;51.198;6.824;2024-03-02T16:05:51;1.52;;;1.02;;
19889;SDS011;10107;51.198;6.824;2024-03-02T16:09:54;2.08;;;1.20;;
19889;SDS011;10107;51.198;6.824;2024-03-02T16:17:58;1.25;;;1.08;;
19889;SDS011;10107;51.198;6.824;2024-03-02T16:22:02;2.22;;;1.20;;
19889;SDS011;10107;51.198;6.824;2024-03-02T16:26:08;4.40;;;1.15;;
19889;SDS011;10107;51.198;6.824;2024-03-02T16:30:09;2.90;;;1.10;;
19889;SDS011;10107;51.198;6.824;2024-03-02T16:34:11;1.40;;;1.02;;
19889;SDS011;10107;51.198;6.824;2024-03-02T16:38:13;1.33;;;1.00;;
19889;SDS011;10107;51.198;6.824;2024-03-02T16:42:16;1.80;;;1.23;;
19889;SDS011;10107;51.198;6.824;2024-03-02T16:46:20;1.50;;;0.98;;
19889;SDS011;10107;51.198;6.824;2024-03-02T16:50:21;2.45;;;1.33;;
19889;SDS011;10107;51.198;6.824;2024-03-02T16:54:23;2.05;;;0.90;;
19889;SDS011;10107;51.198;6.824;2024-03-02T16:58:26;1.55;;;1.00;;
19889;SDS011;10107;51.198;6.824;2024-03-02T17:02:28;1.10;;;0.90;;
19889;SDS011;10107;51.198;6.824;2024-03-02T17:06:29;2.38;;;1.10;;
19889;SDS011;10107;51.198;6.824;2024-03-02T17:10:31;1.60;;;1.00;;
19889;SDS011;10107;51.198;6.824;2024-03-02T17:14:34;1.98;;;1.00;;
19889;SDS011;10107;51.198;6.824;2024-03-02T17:18:36;1.63;;;1.10;;
19889;SDS011;10107;51.198;6.824;2024-03-02T17:22:37;1.63;;;0.98;;
19889;SDS011;10107;51.198;6.824;2024-03-02T17:26:39;1.35;;;1.10;;
19889;SDS011;10107;51.198;6.824;2024-03-02T17:30:42;0.95;;;0.88;;
19889;SDS011;10107;51.198;6.824;2024-03-02T17:34:44;1.23;;;1.10;;
19889;SDS011;10107;51.198;6.824;2024-03-02T17:38:46;1.98;;;1.48;;
19889;SDS011;10107;51.198;6.824;2024-03-02T17:42:48;2.00;;;1.40;;
19889;SDS011;10107;51.198;6.824;2024-03-02T17:46:51;2.08;;;1.40;;
19889;SDS011;10107;51.198;6.824;2024-03-02T17:50:53;2.50;;;1.90;;
19889;SDS011;10107;51.198;6.824;2024-03-02T17:54:54;2.10;;;1.45;;
19889;SDS011;10107;51.198;6.824;2024-03-02T17:58:56;1.70;;;1.60;;
19889;SDS011;10107;51.198;6.824;2024-03-02T18:03:00;4.60;;;2.28;;
19889;SDS011;10107;51.198;6.824;2024-03-02T18:07:01;2.47;;;1.50;;
19889;SDS011;10107;51.198;6.824;2024-03-02T18:11:03;4.10;;;2.55;;
19889;SDS011;10107;51.198;6.824;2024-03-02T18:15:07;5.18;;;2.00;;
19889;SDS011;10107;51.198;6.824;2024-03-02T18:19:11;3.10;;;1.70;;
19889;SDS011;10107;51.198;6.824;2024-03-02T18:23:13;2.20;;;1.60;;
19889;SDS011;10107;51.198;6.824;2024-03-02T18:27:14;2.65;;;1.40;;
19889;SDS011;10107;51.198;6.824;2024-03-02T18:31:18;2.05;;;1.50;;
19889;SDS011;10107;51.198;6.824;2024-03-02T18:35:23;1.95;;;1.70;;
19889;SDS011;10107;51.198;6.824;2024-03-02T18:39:25;1.20;;;1.10;;
19889;SDS011;10107;51.198;6.824;2024-03-02T18:43:26;3.45;;;2.40;;
19889;SDS011;10107;51.198;6.824;2024-03-02T18:47:28;2.28;;;2.08;;
19889;SDS011;10107;51.198;6.824;2024-03-02T18:51:31;2.83;;;1.95;;
19889;SDS011;10107;51.198;6.824;2024-03-02T18:55:33;1.73;;;1.63;;
19889;SDS011;10107;51.198;6.824;2024-03-02T18:59:35;2.20;;;1.80;;
19889;SDS011;10107;51.198;6.824;2024-03-02T19:03:37;2.25;;;1.98;;
19889;SDS011;10107;51.198;6.824;2024-03-02T19:07:40;2.35;;;1.80;;
19889;SDS011;10107;51.198;6.824;2024-03-02T19:11:42;3.50;;;2.20;;
19889;SDS011;10107;51.198;6.824;2024-03-02T19:15:44;2.80;;;1.98;;
19889;SDS011;10107;51.198;6.824;2024-03-02T19:19:46;2.92;;;1.70;;
19889;SDS011;10107;51.198;6.824;2024-03-02T19:23:49;3.10;;;2.13;;
19889;SDS011;10107;51.198;6.824;2024-03-02T19:27:51;2.73;;;2.00;;
19889;SDS011;10107;51.198;6.824;2024-03-02T19:31:53;4.63;;;2.67;;
19889;SDS011;10107;51.198;6.824;2024-03-02T19:35:55;3.80;;;2.60;;
19889;SDS011;10107;51.198;6.824;2024-03-02T19:39:58;4.82;;;2.40;;
19889;SDS011;10107;51.198;6.824;2024-03-02T19:43:59;2.23;;;1.70;;
19889;SDS011;10107;51.198;6.824;2024-03-02T19:52:05;3.42;;;2.35;;
19889;SDS011;10107;51.198;6.824;2024-03-02T19:56:08;2.95;;;2.20;;
19889;SDS011;10107;51.198;6.824;2024-03-02T20:00:17;2.75;;;2.10;;
19889;SDS011;10107;51.198;6.824;2024-03-02T20:04:19;3.75;;;2.03;;
19889;SDS011;10107;51.198;6.824;2024-03-02T20:08:24;2.58;;;1.92;;
19889;SDS011;10107;51.198;6.824;2024-03-02T20:12:27;2.83;;;1.77;;
19889;SDS011;10107;51.198;6.824;2024-03-02T20:16:31;2.70;;;2.20;;
19889;SDS011;10107;51.198;6.824;2024-03-02T20:20:32;2.97;;;2.22;;
19889;SDS011;10107;51.198;6.824;2024-03-02T20:24:34;3.75;;;2.50;;
19889;SDS011;10107;51.198;6.824;2024-03-02T20:28:37;3.03;;;2.38;;
19889;SDS011;10107;51.198;6.824;2024-03-02T20:32:39;2.45;;;2.20;;
19889;SDS011;10107;51.198;6.824;2024-03-02T20:36:41;2.60;;;2.17;;
19889;SDS011;10107;51.198;6.824;2024-03-02T20:40:43;4.88;;;2.83;;
19889;SDS011;10107;51.198;6.824;2024-03-02T20:44:48;4.28;;;2.63;;
19889;SDS011;10107;51.198;6.824;2024-03-02T20:48:50;4.65;;;2.60;;
19889;SDS011;10107;51.198;6.824;2024-03-02T20:52:51;4.47;;;2.55;;
19889;SDS011;10107;51.198;6.824;2024-03-02T20:56:53;4.72;;;3.15;;
19889;SDS011;10107;51.198;6.824;2024-03-02T21:00:57;3.63;;;2.70;;
19889;SDS011;10107;51.198;6.824;2024-03-02T21:04:59;3.55;;;2.65;;
19889;SDS011;10107;51.198;6.824;2024-03-02T21:09:01;3.03;;;2.53;;
19889;SDS011;10107;51.198;6.824;2024-03-02T21:13:03;3.83;;;3.00;;
19889;SDS011;10107;51.198;6.824;2024-03-02T21:17:07;4.07;;;2.90;;
19889;SDS011;10107;51.198;6.824;2024-03-02T21:21:08;3.83;;;2.80;;
19889;SDS011;10107;51.198;6.824;2024-03-02T21:25:11;4.97;;;3.17;;
19889;SDS011;10107;51.198;6.824;2024-03-02T21:29:15;3.38;;;2.85;;
19889;SDS011;10107;51.198;6.824;2024-03-02T21:33:20;4.78;;;2.63;;
19889;SDS011;10107;51.198;6.824;2024-03-02T21:37:22;3.75;;;3.10;;
19889;SDS011;10107;51.198;6.824;2024-03-02T21:41:23;4.53;;;3.17;;
19889;SDS011;10107;51.198;6.824;2024-03-02T21:45:25;4.32;;;3.40;;
19889;SDS011;10107;51.198;6.824;2024-03-02T21:49:29;3.92;;;3.00;;
19889;SDS011;10107;51.198;6.824;2024-03-02T21:53:30;4.47;;;3.00;;
19889;SDS011;10107;51.198;6.824;2024-03-02T21:57:33;4.97;;;3.20;;
19889;SDS011;10107;51.198;6.824;2024-03-02T22:01:35;5.40;;;3.22;;
19889;SDS011;10107;51.198;6.824;2024-03-02T22:05:38;3.70;;;3.00;;
19889;SDS011;10107;51.198;6.824;2024-03-02T22:09:41;4.80;;;3.40;;
19889;SDS011;10107;51.198;6.824;2024-03-02T22:13:43;5.60;;;3.00;;
19889;SDS011;10107;51.198;6.824;2024-03-02T22:17:49;4.18;;;3.38;;
19889;SDS011;10107;51.198;6.824;2024-03-02T22:21:52;5.43;;;4.28;;
19889;SDS011;10107;51.198;6.824;2024-03-02T22:29:59;5.27;;;3.97;;
19889;SDS011;10107;51.198;6.824;2024-03-02T22:34:01;5.10;;;3.90;;
19889;SDS011;10107;51.198;6.824;2024-03-02T22:38:04;5.90;;;3.97;;
19889;SDS011;10107;51.198;6.824;2024-03-02T22:42:06;5.70;;;3.92;;
19889;SDS011;10107;51.198;6.824;2024-03-02T22:46:08;6.05;;;4.43;;
19889;SDS011;10107;51.198;6.824;2024-03-02T22:50:10;6.68;;;4.47;;
19889;SDS011;10107;51.198;6.824;2024-03-02T22:54:13;5.43;;;4.07;;
19889;SDS011;10107;51.198;6.824;2024-03-02T22:58:14;7.93;;;4.80;;
19889;SDS011;10107;51.198;6.824;2024-03-02T23:02:17;7.30;;;4.88;;
19889;SDS011;10107;51.198;6.824;2024-03-02T23:06:20;7.60;;;5.10;;
19889;SDS011;10107;51.198;6.824;2024-03-02T23:10:24;10.80;;;5.90;;
19889;SDS011;10107;51.198;6.824;2024-03-02T23:14:26;8.00;;;5.35;;
19889;SDS011;10107;51.198;6.824;2024-03-02T23:18:28;6.40;;;4.55;;
19889;SDS011;10107;51.198;6.824;2024-03-02T23:22:30;7.22;;;4.57;;
19889;SDS011;10107;51.198;6.824;2024-03-02T23:26:33;6.63;;;4.35;;
19889;SDS011;10107;51.198;6.824;2024-03-02T23:30:35;6.57;;;4.40;;
19889;SDS011;10107;51.198;6.824;2024-03-02T23:34:37;7.82;;;5.07;;
19889;SDS011;10107;51.198;6.824;2024-03-02T23:38:39;5.72;;;4.50;;
19889;SDS011;10107;51.198;6.824;2024-03-02T23:42:42;6.70;;;4.97;;
19889;SDS011;10107;51.198;6.824;2024-03-02T23:46:45;8.07;;;4.60;;
19889;SDS011;10107;51.198;6.824;2024-03-02T23:50:47;8.25;;;5.45;;
19889;SDS011;10107;51.198;6.824;2024-03-02T23:54:49;6.65;;;4.97;;
19889;SDS011;10107;51.198;6.824;2024-03-02T23:58:52;7.93;;;5.10;;
